createdAt,value
2018-12-16T00:01:43.569Z,38.03
2018-12-16T00:04:12.535Z,50.07
2018-12-16T00:06:40.963Z,42.53
2018-12-16T00:09:09.598Z,36.90
2018-12-16T00:11:38.435Z,39.27
2018-12-16T00:14:07.069Z,32.97
2018-12-16T00:16:35.179Z,36.57
2018-12-16T00:19:03.047Z,36.33
2018-12-16T00:21:31.126Z,37.83
2018-12-16T00:23:59.089Z,35.90
2018-12-16T00:26:31.901Z,36.13
2018-12-16T00:29:00.374Z,33.67
2018-12-16T00:31:29.229Z,34.60
2018-12-16T00:33:57.788Z,34.33
2018-12-16T00:36:26.339Z,34.63
2018-12-16T00:38:54.963Z,34.20
2018-12-16T00:41:23.698Z,32.17
2018-12-16T00:43:52.421Z,31.27
2018-12-16T00:46:20.399Z,33.23
2018-12-16T00:48:48.664Z,28.10
2018-12-16T00:51:16.584Z,26.90
2018-12-16T00:53:44.960Z,33.60
2018-12-16T00:56:13.258Z,32.13
2018-12-16T00:58:41.739Z,29.40
2018-12-16T01:01:10.713Z,23.10
2018-12-16T01:03:40.368Z,28.53
2018-12-16T01:06:09.041Z,30.43
2018-12-16T01:08:37.168Z,29.67
2018-12-16T01:11:05.838Z,32.07
2018-12-16T01:13:34.428Z,25.23
2018-12-16T01:16:03.270Z,27.37
2018-12-16T01:18:32.397Z,25.17
2018-12-16T01:21:00.866Z,21.60
2018-12-16T01:23:29.779Z,25.30
2018-12-16T01:25:58.314Z,20.83
2018-12-16T01:28:26.778Z,22.13
2018-12-16T01:30:55.436Z,21.27
2018-12-16T01:33:23.849Z,23.53
2018-12-16T01:35:51.995Z,20.07
2018-12-16T01:38:19.972Z,25.83
2018-12-16T01:40:48.610Z,21.77
2018-12-16T01:43:18.527Z,18.57
2018-12-16T01:45:47.305Z,20.53
2018-12-16T01:48:15.215Z,19.93
2018-12-16T01:50:43.838Z,18.43
2018-12-16T01:53:11.700Z,18.97
2018-12-16T01:55:39.578Z,22.50
2018-12-16T01:58:07.522Z,19.50
2018-12-16T02:00:35.406Z,16.43
2018-12-16T02:03:03.930Z,16.53
2018-12-16T02:05:32.483Z,19.33
2018-12-16T02:08:01.129Z,18.03
2018-12-16T02:10:29.759Z,15.37
2018-12-16T02:12:58.137Z,16.20
2018-12-16T02:15:26.436Z,15.00
2018-12-16T02:17:55.080Z,17.13
2018-12-16T02:20:23.720Z,14.50
2018-12-16T02:22:56.874Z,13.03
2018-12-16T02:25:22.557Z,17.13
2018-12-16T02:27:51.188Z,13.53
2018-12-16T02:30:24.911Z,14.47
2018-12-16T02:32:53.407Z,13.37
2018-12-16T02:35:21.895Z,16.60
2018-12-16T02:37:49.730Z,11.13
2018-12-16T02:40:17.639Z,13.53
2018-12-16T02:42:45.487Z,13.57
2018-12-16T02:45:13.546Z,12.30
2018-12-16T02:47:41.398Z,12.47
2018-12-16T02:50:09.271Z,11.53
2018-12-16T02:52:37.110Z,12.90
2018-12-16T02:55:05.163Z,9.67
2018-12-16T02:57:33.001Z,15.03
2018-12-16T03:00:00.833Z,10.73
2018-12-16T03:02:28.669Z,12.37
2018-12-16T03:04:57.145Z,10.50
2018-12-16T03:07:25.693Z,10.50
2018-12-16T03:09:54.277Z,11.40
2018-12-16T03:12:22.107Z,9.80
2018-12-16T03:14:49.948Z,10.27
2018-12-16T03:17:17.924Z,11.67
2018-12-16T03:19:45.764Z,10.13
2018-12-16T03:22:13.591Z,10.00
2018-12-16T03:24:41.454Z,10.37
2018-12-16T03:27:09.315Z,10.80
2018-12-16T03:29:37.187Z,10.43
2018-12-16T03:32:05.063Z,12.33
2018-12-16T03:34:33.142Z,13.63
2018-12-16T03:37:01.020Z,10.37
2018-12-16T03:39:28.908Z,11.07
2018-12-16T03:41:57.316Z,12.90
2018-12-16T03:44:25.952Z,11.87
2018-12-16T03:46:54.600Z,12.13
2018-12-16T03:49:22.568Z,11.47
2018-12-16T03:51:50.429Z,12.33
2018-12-16T03:54:18.319Z,9.63
2018-12-16T03:56:46.169Z,11.50
2018-12-16T03:59:17.710Z,9.77
2018-12-16T04:01:49.923Z,10.40
2018-12-16T04:04:17.942Z,10.17
2018-12-16T04:06:45.911Z,11.13
2018-12-16T04:09:13.755Z,10.57
2018-12-16T04:11:41.765Z,11.67
2018-12-16T04:14:09.581Z,9.53
2018-12-16T04:16:37.408Z,11.20
2018-12-16T04:19:05.613Z,11.27
2018-12-16T04:21:33.465Z,7.73
2018-12-16T04:24:01.352Z,11.63
2018-12-16T04:26:29.189Z,8.00
2018-12-16T04:28:57.039Z,9.13
2018-12-16T04:31:24.910Z,9.57
2018-12-16T04:33:52.789Z,9.50
2018-12-16T04:36:20.598Z,10.37
2018-12-16T04:38:48.795Z,10.50
2018-12-16T04:41:16.702Z,12.80
2018-12-16T04:43:44.598Z,11.87
2018-12-16T04:46:13.017Z,14.83
2018-12-16T04:48:41.661Z,13.30
2018-12-16T04:51:09.498Z,14.77
2018-12-16T04:53:37.375Z,13.70
2018-12-16T04:56:05.261Z,11.60
2018-12-16T04:58:33.133Z,15.57
2018-12-16T05:01:00.964Z,17.47
2018-12-16T05:03:28.790Z,21.13
2018-12-16T05:05:56.631Z,16.00
2018-12-16T05:08:24.617Z,18.47
2018-12-16T05:10:52.465Z,22.00
2018-12-16T05:13:20.288Z,23.57
2018-12-16T05:15:48.315Z,23.77
2018-12-16T05:18:16.162Z,26.03
2018-12-16T05:20:44.011Z,26.63
2018-12-16T05:23:11.857Z,25.60
2018-12-16T05:25:39.677Z,29.43
2018-12-16T05:28:07.515Z,26.43
2018-12-16T05:30:35.366Z,25.93
2018-12-16T05:33:03.949Z,28.30
2018-12-16T05:35:32.580Z,29.13
2018-12-16T05:38:00.393Z,28.30
2018-12-16T05:40:28.249Z,25.53
2018-12-16T05:42:56.078Z,25.87
2018-12-16T05:45:23.942Z,30.77
2018-12-16T05:47:51.832Z,27.07
2018-12-16T05:50:19.833Z,27.63
2018-12-16T05:52:47.719Z,25.47
2018-12-16T05:55:15.562Z,24.60
2018-12-16T05:57:43.393Z,24.90
2018-12-16T06:00:11.321Z,25.83
2018-12-16T06:02:39.154Z,26.53
2018-12-16T06:05:07.922Z,26.37
2018-12-16T06:07:35.773Z,23.70
2018-12-16T06:10:03.657Z,24.27
2018-12-16T06:12:31.476Z,23.27
2018-12-16T06:14:59.296Z,26.60
2018-12-16T06:17:27.158Z,26.07
2018-12-16T06:19:55.072Z,27.77
2018-12-16T06:22:23.032Z,25.37
2018-12-16T06:24:50.851Z,22.07
2018-12-16T06:27:18.685Z,24.77
2018-12-16T06:29:46.846Z,22.87
2018-12-16T06:32:14.669Z,23.43
2018-12-16T06:34:42.569Z,24.30
2018-12-16T06:37:10.536Z,23.70
2018-12-16T06:39:38.457Z,22.73
2018-12-16T06:42:06.319Z,22.93
2018-12-16T06:44:34.176Z,25.60
2018-12-16T06:47:02.098Z,20.57
2018-12-16T06:49:29.968Z,21.80
2018-12-16T06:51:57.873Z,24.37
2018-12-16T06:54:25.719Z,24.33
2018-12-16T06:56:53.545Z,23.83
2018-12-16T06:59:21.370Z,26.60
2018-12-16T07:01:49.302Z,22.33
2018-12-16T07:04:17.313Z,23.93
2018-12-16T07:06:45.233Z,22.70
2018-12-16T07:09:13.529Z,23.17
2018-12-16T07:11:41.344Z,21.93
2018-12-16T07:14:09.196Z,25.13
2018-12-16T07:16:37.040Z,30.17
2018-12-16T07:19:05.448Z,23.93
2018-12-16T07:21:34.067Z,23.90
2018-12-16T07:24:01.968Z,24.07
2018-12-16T07:26:29.880Z,24.20
2018-12-16T07:28:57.707Z,23.57
2018-12-16T07:31:25.555Z,25.03
2018-12-16T07:33:53.428Z,24.03
2018-12-16T07:36:21.294Z,22.53
2018-12-16T07:38:49.227Z,23.50
2018-12-16T07:41:17.139Z,24.50
2018-12-16T07:43:44.993Z,27.43
2018-12-16T07:46:12.825Z,22.10
2018-12-16T07:48:40.824Z,22.67
2018-12-16T07:51:08.720Z,23.37
2018-12-16T07:53:36.653Z,24.90
2018-12-16T07:56:04.965Z,27.00
2018-12-16T07:58:32.810Z,28.33
2018-12-16T08:01:00.644Z,22.27
2018-12-16T08:03:28.525Z,23.93
2018-12-16T08:05:56.396Z,23.47
2018-12-16T08:08:24.253Z,23.47
2018-12-16T08:10:52.072Z,25.73
2018-12-16T08:13:19.913Z,28.73
2018-12-16T08:15:47.797Z,30.60
2018-12-16T08:18:17.147Z,25.33
2018-12-16T08:20:45.388Z,30.73
2018-12-16T08:23:13.234Z,29.40
2018-12-16T08:25:41.101Z,27.03
2018-12-16T08:28:09.066Z,27.17
2018-12-16T08:30:36.936Z,24.37
2018-12-16T08:33:04.777Z,26.80
2018-12-16T08:35:32.615Z,26.80
2018-12-16T08:38:00.488Z,26.27
2018-12-16T08:40:28.429Z,32.00
2018-12-16T08:42:56.423Z,25.47
2018-12-16T08:45:24.274Z,25.13
2018-12-16T08:47:52.109Z,24.60
2018-12-16T08:50:19.951Z,24.70
2018-12-16T08:52:47.858Z,26.30
2018-12-16T08:55:15.719Z,25.90
2018-12-16T08:57:43.589Z,26.93
2018-12-16T09:00:11.491Z,23.93
2018-12-16T09:02:39.329Z,24.87
2018-12-16T09:05:07.198Z,21.77
2018-12-16T09:07:37.400Z,21.63
2018-12-16T09:10:05.449Z,26.47
2018-12-16T09:12:33.348Z,23.97
2018-12-16T09:15:01.430Z,20.13
2018-12-16T09:17:29.282Z,21.53
2018-12-16T09:19:57.135Z,25.87
2018-12-16T09:22:25.006Z,24.97
2018-12-16T09:24:53.640Z,20.80
2018-12-16T09:27:22.269Z,22.30
2018-12-16T09:29:51.242Z,19.30
2018-12-16T09:32:19.790Z,22.93
2018-12-16T09:34:49.134Z,22.37
2018-12-16T09:37:17.617Z,22.27
2018-12-16T09:39:46.125Z,20.37
2018-12-16T09:42:14.704Z,20.97
2018-12-16T09:44:43.398Z,18.00
2018-12-16T09:47:11.967Z,19.03
2018-12-16T09:49:40.613Z,21.67
2018-12-16T09:52:09.265Z,18.90
2018-12-16T09:54:44.010Z,20.13
2018-12-16T09:57:08.637Z,20.37
2018-12-16T09:59:37.114Z,20.03
2018-12-16T10:02:06.121Z,19.73
2018-12-16T10:04:34.640Z,24.30
2018-12-16T10:07:03.215Z,22.13
2018-12-16T10:09:31.869Z,21.73
2018-12-16T10:12:00.318Z,24.67
2018-12-16T10:14:28.883Z,23.33
2018-12-16T10:16:57.422Z,18.80
2018-12-16T10:19:25.899Z,20.73
2018-12-16T10:21:54.528Z,21.30
2018-12-16T10:24:23.088Z,20.27
2018-12-16T10:26:51.882Z,22.30
2018-12-16T10:29:20.378Z,17.60
2018-12-16T10:31:48.800Z,19.90
2018-12-16T10:34:17.715Z,24.63
2018-12-16T10:36:46.338Z,17.80
2018-12-16T10:39:14.912Z,20.03
2018-12-16T10:41:43.513Z,18.50
2018-12-16T10:44:12.162Z,16.90
2018-12-16T10:46:40.852Z,15.47
2018-12-16T10:49:09.247Z,21.57
2018-12-16T10:51:37.881Z,20.63
2018-12-16T10:54:06.576Z,21.67
2018-12-16T10:56:35.035Z,18.07
2018-12-16T10:59:03.379Z,21.37
2018-12-16T11:01:31.597Z,17.73
2018-12-16T11:04:00.099Z,15.23
2018-12-16T11:06:28.584Z,16.60
2018-12-16T11:08:57.419Z,21.37
2018-12-16T11:11:25.810Z,16.57
2018-12-16T11:13:54.368Z,15.07
2018-12-16T11:16:23.074Z,13.60
2018-12-16T11:18:51.891Z,16.23
2018-12-16T11:21:20.329Z,13.17
2018-12-16T11:23:53.803Z,12.03
2018-12-16T11:26:19.206Z,11.90
2018-12-16T11:28:47.882Z,12.03
2018-12-16T11:31:16.309Z,11.83
2018-12-16T11:33:44.973Z,12.97
2018-12-16T11:36:13.571Z,10.33
2018-12-16T11:38:42.171Z,13.30
2018-12-16T11:41:10.814Z,11.33
2018-12-16T11:43:39.466Z,10.40
2018-12-16T11:46:07.885Z,10.00
2018-12-16T11:48:36.359Z,10.27
2018-12-16T11:51:04.990Z,9.67
2018-12-16T11:53:33.629Z,10.43
2018-12-16T11:56:02.277Z,10.67
2018-12-16T11:58:30.886Z,9.50
2018-12-16T12:00:59.524Z,10.13
2018-12-16T12:03:28.160Z,10.10
2018-12-16T12:05:56.578Z,12.13
2018-12-16T12:08:25.038Z,9.27
2018-12-16T12:10:52.863Z,9.83
2018-12-16T12:13:21.357Z,9.83
2018-12-16T12:15:49.961Z,10.33
2018-12-16T12:18:18.353Z,8.20
2018-12-16T12:20:46.898Z,9.17
2018-12-16T12:23:15.274Z,11.23
2018-12-16T12:25:43.471Z,8.63
2018-12-16T12:28:11.770Z,10.80
2018-12-16T12:30:40.398Z,13.03
2018-12-16T12:33:08.809Z,9.90
2018-12-16T12:35:37.298Z,9.50
2018-12-16T12:38:05.921Z,11.60
2018-12-16T12:40:34.372Z,11.03
2018-12-16T12:43:03.019Z,8.33
2018-12-16T12:45:31.664Z,12.57
2018-12-16T12:48:00.258Z,10.93
2018-12-16T12:50:28.731Z,8.90
2018-12-16T12:52:57.340Z,9.77
2018-12-16T12:55:26.880Z,12.63
2018-12-16T12:57:55.802Z,9.63
2018-12-16T13:00:25.708Z,11.53
2018-12-16T13:02:54.834Z,13.23
2018-12-16T13:05:23.493Z,14.53
2018-12-16T13:07:51.869Z,10.90
2018-12-16T13:10:20.397Z,11.30
2018-12-16T13:12:48.802Z,11.50
2018-12-16T13:15:17.451Z,12.03
2018-12-16T13:17:46.156Z,10.77
2018-12-16T13:20:14.726Z,11.37
2018-12-16T13:22:43.340Z,12.07
2018-12-16T13:25:16.949Z,13.03
2018-12-16T13:27:45.465Z,12.57
2018-12-16T13:30:14.027Z,9.33
2018-12-16T13:32:43.167Z,8.70
2018-12-16T13:35:11.708Z,10.87
2018-12-16T13:37:40.284Z,9.20
2018-12-16T13:40:09.142Z,9.30
2018-12-16T13:42:37.567Z,11.33
2018-12-16T13:45:06.526Z,11.67
2018-12-16T13:47:35.037Z,10.47
2018-12-16T13:50:03.721Z,11.53
2018-12-16T13:52:32.314Z,10.13
2018-12-16T13:55:00.478Z,11.40
2018-12-16T13:57:29.755Z,9.87
2018-12-16T13:59:58.578Z,11.90
2018-12-16T14:02:27.402Z,9.80
2018-12-16T14:04:56.121Z,9.83
2018-12-16T14:07:24.009Z,9.97
2018-12-16T14:09:51.914Z,10.47
2018-12-16T14:12:19.887Z,11.63
2018-12-16T14:14:47.887Z,10.90
2018-12-16T14:17:15.869Z,9.77
2018-12-16T14:19:43.789Z,17.23
2018-12-16T14:22:11.756Z,15.43
2018-12-16T14:24:39.810Z,9.50
2018-12-16T14:27:08.825Z,15.40
2018-12-16T14:29:37.241Z,10.83
2018-12-16T14:32:05.119Z,16.93
2018-12-16T14:34:33.954Z,13.87
2018-12-16T14:37:02.462Z,17.07
2018-12-16T14:39:31.085Z,13.00
2018-12-16T14:41:59.589Z,16.43
2018-12-16T14:44:27.624Z,13.00
2018-12-16T14:46:55.581Z,13.47
2018-12-16T14:49:23.491Z,13.17
2018-12-16T14:51:51.425Z,12.60
2018-12-16T14:54:19.430Z,14.07
2018-12-16T14:56:47.362Z,12.33
2018-12-16T14:59:15.315Z,11.47
2018-12-16T15:01:43.532Z,10.93
2018-12-16T15:04:11.421Z,18.73
2018-12-16T15:06:39.262Z,14.23
2018-12-16T15:09:07.757Z,10.93
2018-12-16T15:11:35.604Z,11.77
2018-12-16T15:14:03.570Z,9.87
2018-12-16T15:16:31.650Z,12.07
2018-12-16T15:18:59.589Z,13.47
2018-12-16T15:21:27.473Z,16.07
2018-12-16T15:23:55.344Z,13.63
2018-12-16T15:26:23.257Z,9.00
2018-12-16T15:28:51.202Z,12.70
2018-12-16T15:31:19.150Z,11.53
2018-12-16T15:33:47.119Z,8.70
2018-12-16T15:36:15.045Z,10.17
2018-12-16T15:38:42.908Z,11.57
2018-12-16T15:41:10.790Z,9.60
2018-12-16T15:43:38.621Z,9.30
2018-12-16T15:46:06.556Z,9.17
2018-12-16T15:48:34.577Z,10.40
2018-12-16T15:51:02.433Z,11.03
2018-12-16T15:53:30.274Z,9.60
2018-12-16T15:55:58.168Z,11.77
2018-12-16T15:58:26.647Z,9.63
2018-12-16T16:00:54.481Z,10.73
2018-12-16T16:03:22.867Z,10.67
2018-12-16T16:05:50.695Z,9.30
2018-12-16T16:08:19.390Z,11.10
2018-12-16T16:10:47.233Z,9.63
2018-12-16T16:13:15.205Z,8.27
2018-12-16T16:15:43.484Z,12.87
2018-12-16T16:18:11.325Z,10.27
2018-12-16T16:20:39.247Z,10.03
2018-12-16T16:23:08.048Z,10.00
2018-12-16T16:25:35.934Z,12.60
2018-12-16T16:28:03.818Z,13.60
2018-12-16T16:30:31.705Z,14.80
2018-12-16T16:32:59.542Z,13.43
2018-12-16T16:35:27.435Z,14.83
2018-12-16T16:38:00.672Z,18.70
2018-12-16T16:40:25.503Z,18.07
2018-12-16T16:42:53.382Z,17.80
2018-12-16T16:45:21.306Z,14.07
2018-12-16T16:47:49.222Z,16.37
2018-12-16T16:50:17.212Z,18.10
2018-12-16T16:52:45.121Z,18.03
2018-12-16T16:55:13.000Z,16.83
2018-12-16T16:57:40.832Z,18.33
2018-12-16T17:00:09.213Z,17.47
2018-12-16T17:02:37.109Z,20.17
2018-12-16T17:05:05.037Z,15.10
2018-12-16T17:07:33.238Z,16.40
2018-12-16T17:10:01.155Z,18.87
2018-12-16T17:12:28.997Z,18.00
2018-12-16T17:14:56.822Z,18.93
2018-12-16T17:17:24.676Z,14.87
2018-12-16T17:19:52.520Z,17.53
2018-12-16T17:22:20.358Z,18.07
2018-12-16T17:24:48.762Z,17.53
2018-12-16T17:27:16.630Z,19.10
2018-12-16T17:29:44.611Z,17.70
2018-12-16T17:32:12.451Z,18.43
2018-12-16T17:34:40.341Z,23.57
2018-12-16T17:37:08.205Z,20.80
2018-12-16T17:39:36.057Z,19.70
2018-12-16T17:42:03.921Z,18.47
2018-12-16T17:44:31.749Z,18.37
2018-12-16T17:47:00.045Z,17.30
2018-12-16T17:49:28.863Z,18.97
2018-12-16T17:51:57.504Z,17.90
2018-12-16T17:54:25.998Z,19.87
2018-12-16T17:56:54.617Z,23.23
2018-12-16T17:59:29.570Z,18.67
2018-12-16T18:01:57.554Z,20.17
2018-12-16T18:04:25.569Z,20.43
2018-12-16T18:06:53.512Z,18.47
2018-12-16T18:09:21.371Z,21.13
2018-12-16T18:11:49.251Z,19.30
2018-12-16T18:14:18.378Z,19.87
2018-12-16T18:16:46.756Z,20.40
2018-12-16T18:19:15.059Z,17.97
2018-12-16T18:21:42.926Z,21.60
2018-12-16T18:24:10.809Z,23.07
2018-12-16T18:26:44.001Z,22.67
2018-12-16T18:29:08.557Z,25.37
2018-12-16T18:31:36.483Z,21.90
2018-12-16T18:34:04.388Z,22.53
2018-12-16T18:36:32.371Z,21.37
2018-12-16T18:39:00.314Z,18.27
2018-12-16T18:41:28.453Z,19.43
2018-12-16T18:43:56.313Z,26.00
2018-12-16T18:46:24.322Z,23.67
2018-12-16T18:48:52.195Z,24.33
2018-12-16T18:51:20.022Z,23.07
2018-12-16T18:53:47.926Z,23.07
2018-12-16T18:56:15.754Z,21.70
2018-12-16T18:58:43.601Z,23.87
2018-12-16T19:01:11.452Z,29.57
2018-12-16T19:03:39.491Z,26.73
2018-12-16T19:06:07.373Z,23.10
2018-12-16T19:08:35.317Z,24.47
2018-12-16T19:11:03.259Z,27.27
2018-12-16T19:13:31.105Z,21.77
2018-12-16T19:15:59.023Z,28.07
2018-12-16T19:18:27.982Z,24.67
2018-12-16T19:20:55.937Z,22.00
2018-12-16T19:23:23.842Z,21.60
2018-12-16T19:25:51.716Z,24.40
2018-12-16T19:28:19.685Z,24.57
2018-12-16T19:30:48.659Z,24.23
2018-12-16T19:33:17.061Z,23.47
2018-12-16T19:35:45.273Z,23.50
2018-12-16T19:38:13.191Z,29.77
2018-12-16T19:40:41.097Z,26.90
2018-12-16T19:43:09.073Z,23.00
2018-12-16T19:45:37.072Z,25.10
2018-12-16T19:48:05.213Z,24.07
2018-12-16T19:50:33.129Z,26.40
2018-12-16T19:53:00.955Z,24.83
2018-12-16T19:55:29.480Z,23.97
2018-12-16T19:57:58.268Z,25.83
2018-12-16T20:00:26.227Z,21.13
2018-12-16T20:02:54.580Z,22.03
2018-12-16T20:05:23.732Z,23.83
2018-12-16T20:07:51.765Z,26.30
2018-12-16T20:10:19.633Z,28.97
2018-12-16T20:12:48.250Z,25.67
2018-12-16T20:15:16.748Z,24.70
2018-12-16T20:17:45.500Z,29.23
2018-12-16T20:20:14.130Z,30.30
2018-12-16T20:22:42.777Z,26.47
2018-12-16T20:25:10.640Z,26.30
2018-12-16T20:27:38.526Z,28.47
2018-12-16T20:30:07.556Z,27.90
2018-12-16T20:32:36.122Z,30.30
2018-12-16T20:35:05.109Z,31.27
2018-12-16T20:37:33.199Z,29.67
2018-12-16T20:40:01.057Z,32.03
2018-12-16T20:42:28.891Z,27.00
2018-12-16T20:44:57.529Z,30.03
2018-12-16T20:47:26.207Z,28.90
2018-12-16T20:49:54.589Z,26.43
2018-12-16T20:52:23.409Z,24.57
2018-12-16T20:54:51.807Z,25.77
2018-12-16T20:57:20.316Z,28.63
2018-12-16T20:59:48.739Z,27.37
2018-12-16T21:02:17.391Z,25.27
2018-12-16T21:04:46.024Z,27.93
2018-12-16T21:07:14.629Z,28.77
2018-12-16T21:09:44.235Z,30.20
2018-12-16T21:14:22.494Z,26.60
2018-12-16T21:16:56.391Z,28.40
2018-12-16T21:19:25.619Z,27.70
2018-12-16T21:21:54.274Z,25.57
2018-12-16T21:24:23.130Z,27.87
2018-12-16T21:26:51.827Z,29.73
2018-12-16T21:29:20.415Z,24.83
2018-12-16T21:31:48.829Z,28.77
2018-12-16T21:34:17.324Z,25.63
2018-12-16T21:36:45.950Z,22.33
2018-12-16T21:39:14.551Z,26.00
2018-12-16T21:41:43.184Z,24.40
2018-12-16T21:44:11.225Z,27.03
2018-12-16T21:46:39.642Z,25.33
2018-12-16T21:49:08.303Z,23.23
2018-12-16T21:51:37.020Z,24.10
2018-12-16T21:54:05.589Z,29.27
2018-12-16T21:56:34.219Z,26.53
2018-12-16T21:59:02.879Z,28.00
2018-12-16T22:01:32.204Z,35.83
2018-12-16T22:04:00.722Z,64.33
2018-12-16T22:06:29.149Z,110.30
2018-12-16T22:08:57.560Z,69.13
2018-12-16T22:11:26.056Z,50.87
2018-12-16T22:13:54.685Z,31.90
2018-12-16T22:16:23.361Z,29.37
2018-12-16T22:18:51.218Z,33.13
2018-12-16T22:21:19.239Z,30.27
2018-12-16T22:23:47.242Z,25.33
2018-12-16T22:26:15.705Z,24.00
2018-12-16T22:28:44.300Z,34.47
2018-12-16T22:31:12.120Z,34.57
2018-12-16T22:33:39.984Z,33.50
2018-12-16T22:36:07.993Z,30.53
2018-12-16T22:38:35.855Z,27.33
2018-12-16T22:41:03.695Z,27.83
2018-12-16T22:43:31.557Z,26.80
2018-12-16T22:45:59.397Z,28.00
2018-12-16T22:48:27.226Z,27.53
2018-12-16T22:50:55.081Z,27.97
2018-12-16T22:53:22.940Z,28.90
2018-12-16T22:55:50.810Z,34.37
2018-12-16T22:58:19.500Z,29.87
2018-12-16T23:00:52.612Z,31.37
2018-12-16T23:03:20.438Z,33.30
2018-12-16T23:05:48.364Z,31.20
2018-12-16T23:08:16.189Z,32.57
2018-12-16T23:10:44.039Z,31.07
2018-12-16T23:13:11.885Z,32.20
2018-12-16T23:15:39.700Z,34.77
2018-12-16T23:18:07.534Z,34.60
2018-12-16T23:20:35.375Z,35.63
2018-12-16T23:23:03.225Z,36.00
2018-12-16T23:25:31.072Z,48.90
2018-12-16T23:27:59.083Z,43.07
2018-12-16T23:30:26.939Z,47.43
2018-12-16T23:32:54.822Z,42.20
2018-12-16T23:35:22.688Z,43.37
2018-12-16T23:37:51.218Z,38.67
2018-12-16T23:40:19.861Z,32.77
2018-12-16T23:42:48.306Z,35.70
2018-12-16T23:45:16.150Z,37.80
2018-12-16T23:47:44.009Z,42.13
2018-12-16T23:50:11.861Z,42.07
2018-12-16T23:52:39.708Z,37.50
2018-12-16T23:55:07.554Z,41.53
2018-12-16T23:57:35.420Z,42.63
